Aérodrome :
LOGIN :

S'inscrire | Disclaimer

   EN    FR    IT 

 










Légende :    VFR   VFR Marginal   IFR   IFR Intensif   IFR Très Intensif
Visi : 
Plafond : 
>= 8 km
>= 3000ft
5 à 8 km
1000 à 3000 ft
1500m à 5 km
500 à 1000 ft
800 à 1500m
200 à 500 ft
< 800m
< 200 ft
Symboles :   Orages  Brouillard  Fortes neiges  Fortes précipitations  Vent > 20 kt
SIGMETs :   Divers  Orages  Givrage  Turbulence  Onde Orograph.  Cendres Volcan.






- Altitude de l'aérodrome : 392 ft
- Code IATA : CDG


LFPG - Paris-Aeroport Charles De Gaulle

DERNIER METAR :
  • 280430Z 32010KT 6000 -RADZ BKN006 12/12 Q1009 TEMPO 3000 DZ

METARs EXPIRÉS :
  • 280400Z 32012KT 8000 -RADZ BKN006 12/12 Q1009 TEMPO 3000 DZ
  • 280330Z 32012KT 4500 -RA BR FEW005 BKN006 12/12 Q1009 TEMPO 2000 DZ BKN004 BKN008
  • 280300Z 32011KT 4500 -RA BR FEW005 BKN006 BKN013 12/12 Q1009 TEMPO 2000 DZ BKN004 BKN008
  • 280230Z 31010KT 5000 -RA BR SCT005 BKN006 BKN011 12/12 Q1009 TEMPO 2000 DZ BKN004 BKN008
  • 280200Z 31012KT 4200 RA BR SCT004 BKN005 BKN011 12/12 Q1009 TEMPO 2000 DZ BKN004 BKN008

TAF TAF LFPG
Valide du 28 à 00h jusqu'au 29 à 06h UTC


272300Z 2800/2906 33015KT 9999 BKN008 TX15/2815Z TN11/2905Z
PROB40
TEMPO 2800/2811 3000 -DZ BKN004
PROB30
TEMPO 2800/2811 1400 DZ
BECMG 2811/2813 NSW BKN012
BECMG 2813/2815 BKN020
BECMG 2820/2822 26010KT
TEMPO 2900/2906 BKN008
PROB40
TEMPO 2900/2906 BKN003
ATIS : +33 1 48 62 10 92



MET'MAP, la Météo Aéronautique d'un coup d'oeil ! - Copyright ORBIFLY Décembre 2007 - Disclaimer

ORBIFLY MET'MAP TEAM :

Programmation & Développement : Alexandra Zaïnal
Sur une idée originale de : Baudouin d'Aumeries
Assistance à la programmation : Marc-Olivier Méhu
Soutien technique & logistique : Manuel Goepfert

Contact : metmap@orbifly.com




SOURCES & CREDITS :

   NOAA